createdAt,value
2019-02-15T00:00:29.392Z,91.27
2019-02-15T00:01:29.389Z,91.78
2019-02-15T00:02:29.395Z,91.68
2019-02-15T00:03:29.362Z,91.68
2019-02-15T00:04:29.350Z,91.06
2019-02-15T00:05:29.334Z,91.06
2019-02-15T00:06:29.328Z,91.58
2019-02-15T00:07:29.338Z,91.78
2019-02-15T00:08:29.318Z,92.10
2019-02-15T00:09:29.291Z,92.41
2019-02-15T00:10:29.280Z,92.56
2019-02-15T00:11:29.286Z,92.87
2019-02-15T00:12:29.279Z,93.04
2019-02-15T00:13:29.255Z,93.18
2019-02-15T00:14:29.238Z,92.66
2019-02-15T00:15:29.245Z,92.46
2019-02-15T00:16:29.215Z,92.35
2019-02-15T00:17:29.218Z,92.41
2019-02-15T00:18:30.234Z,92.25
2019-02-15T00:19:29.189Z,92.52
2019-02-15T00:20:29.171Z,92.56
2019-02-15T00:21:29.172Z,92.25
2019-02-15T00:22:29.157Z,92.41
2019-02-15T00:23:29.154Z,92.56
2019-02-15T00:24:29.133Z,92.14
2019-02-15T00:25:29.134Z,92.60
2019-02-15T00:26:29.112Z,93.23
2019-02-15T00:27:29.104Z,93.33
2019-02-15T00:28:29.095Z,93.23
2019-02-15T00:29:29.085Z,93.65
2019-02-15T00:30:29.080Z,93.54
2019-02-15T00:31:29.059Z,93.33
2019-02-15T00:32:29.044Z,93.33
2019-02-15T00:33:29.034Z,93.33
2019-02-15T00:34:29.025Z,93.33
2019-02-15T00:35:29.018Z,93.12
2019-02-15T00:36:29.013Z,93.23
2019-02-15T00:37:29.004Z,93.33
2019-02-15T00:38:29.013Z,93.23
2019-02-15T00:39:28.971Z,93.44
2019-02-15T00:40:28.965Z,93.33
2019-02-15T00:41:28.957Z,92.75
2019-02-15T00:42:28.956Z,92.85
2019-02-15T00:43:28.937Z,93.37
2019-02-15T00:44:28.917Z,93.59
2019-02-15T00:45:28.912Z,93.23
2019-02-15T00:46:28.904Z,93.54
2019-02-15T00:47:28.877Z,93.33
2019-02-15T00:48:28.881Z,93.69
2019-02-15T00:49:28.859Z,93.79
2019-02-15T00:50:28.857Z,93.69
2019-02-15T00:51:28.852Z,93.37
2019-02-15T00:52:28.843Z,93.48
2019-02-15T00:53:28.835Z,93.59
2019-02-15T00:54:28.809Z,92.96
2019-02-15T00:55:28.804Z,93.27
2019-02-15T00:56:28.789Z,93.48
2019-02-15T00:57:28.793Z,93.16
2019-02-15T00:58:28.763Z,93.16
2019-02-15T00:59:28.753Z,93.00
2019-02-15T01:00:28.749Z,93.21
2019-02-15T01:01:28.755Z,93.48
2019-02-15T01:02:28.732Z,93.27
2019-02-15T01:03:28.721Z,93.37
2019-02-15T01:04:28.741Z,93.06
2019-02-15T01:05:28.697Z,93.48
2019-02-15T01:06:28.681Z,93.73
2019-02-15T01:07:28.666Z,93.41
2019-02-15T01:08:28.665Z,93.52
2019-02-15T01:09:28.663Z,93.63
2019-02-15T01:10:28.641Z,93.63
2019-02-15T01:11:30.439Z,93.73
2019-02-15T01:12:28.632Z,94.78
2019-02-15T01:13:31.230Z,94.78
2019-02-15T01:14:28.636Z,94.50
2019-02-15T01:15:28.611Z,94.25
2019-02-15T01:16:28.595Z,94.46
2019-02-15T01:17:28.575Z,94.15
2019-02-15T01:18:28.562Z,94.88
2019-02-15T01:19:28.545Z,94.29
2019-02-15T01:20:28.535Z,95.23
2019-02-15T01:21:28.518Z,94.61
2019-02-15T01:22:28.508Z,94.46
2019-02-15T01:23:28.507Z,94.46
2019-02-15T01:24:28.496Z,94.57
2019-02-15T01:25:28.477Z,94.78
2019-02-15T01:26:28.461Z,94.57
2019-02-15T01:27:28.459Z,94.46
2019-02-15T01:28:28.441Z,94.82
2019-02-15T01:29:28.441Z,95.09
2019-02-15T01:30:28.418Z,94.09
2019-02-15T01:31:28.424Z,94.19
2019-02-15T01:32:28.397Z,93.77
2019-02-15T01:33:28.383Z,93.98
2019-02-15T01:34:28.382Z,93.88
2019-02-15T01:35:28.367Z,93.73
2019-02-15T01:36:28.371Z,93.77
2019-02-15T01:37:28.349Z,93.41
2019-02-15T01:38:28.335Z,93.35
2019-02-15T01:39:28.333Z,93.57
2019-02-15T01:40:28.307Z,93.41
2019-02-15T01:41:28.305Z,93.57
2019-02-15T01:42:28.310Z,93.77
2019-02-15T01:43:28.281Z,93.88
2019-02-15T01:44:28.270Z,93.57
2019-02-15T01:45:28.271Z,93.73
2019-02-15T01:46:28.255Z,93.67
2019-02-15T01:47:28.241Z,93.57
2019-02-15T01:48:28.232Z,93.77
2019-02-15T01:49:28.218Z,93.35
2019-02-15T01:50:28.209Z,92.94
2019-02-15T01:51:28.191Z,93.40
2019-02-15T01:52:28.188Z,93.77
2019-02-15T01:53:28.183Z,94.09
2019-02-15T01:54:28.160Z,93.67
2019-02-15T01:55:28.155Z,93.50
2019-02-15T01:56:28.167Z,93.88
2019-02-15T01:57:28.132Z,93.88
2019-02-15T01:58:28.157Z,93.67
2019-02-15T01:59:28.148Z,93.61
2019-02-15T02:00:28.097Z,93.82
2019-02-15T02:01:28.087Z,94.44
2019-02-15T02:02:28.073Z,94.96
2019-02-15T02:03:28.061Z,94.65
2019-02-15T02:04:28.054Z,94.96
2019-02-15T02:05:28.049Z,94.55
2019-02-15T02:06:28.027Z,94.55
2019-02-15T02:07:28.023Z,95.07
2019-02-15T02:08:28.011Z,94.55
2019-02-15T02:09:28.001Z,95.28
2019-02-15T02:10:27.995Z,94.76
2019-02-15T02:11:27.991Z,94.76
2019-02-15T02:12:27.970Z,94.55
2019-02-15T02:13:27.969Z,94.65
2019-02-15T02:14:27.942Z,94.65
2019-02-15T02:15:27.949Z,94.76
2019-02-15T02:16:27.932Z,94.65
2019-02-15T02:17:27.907Z,94.55
2019-02-15T02:18:27.905Z,94.65
2019-02-15T02:19:27.897Z,94.65
2019-02-15T02:20:27.881Z,93.92
2019-02-15T02:21:27.870Z,94.07
2019-02-15T02:22:27.881Z,94.07
2019-02-15T02:23:27.847Z,93.96
2019-02-15T02:24:27.837Z,93.96
2019-02-15T02:25:27.833Z,94.38
2019-02-15T02:26:27.816Z,94.27
2019-02-15T02:27:27.815Z,94.59
2019-02-15T02:28:27.801Z,95.01
2019-02-15T02:29:27.784Z,95.11
2019-02-15T02:30:27.780Z,95.47
2019-02-15T02:31:27.768Z,95.99
2019-02-15T02:32:27.764Z,96.31
2019-02-15T02:33:27.752Z,95.78
2019-02-15T02:34:27.733Z,96.10
2019-02-15T02:35:27.726Z,96.51
2019-02-15T02:36:27.715Z,97.14
2019-02-15T02:37:27.713Z,96.37
2019-02-15T02:38:27.692Z,96.89
2019-02-15T02:39:27.694Z,96.16
2019-02-15T02:40:27.671Z,96.83
2019-02-15T02:41:27.657Z,96.78
2019-02-15T02:42:27.648Z,96.26
2019-02-15T02:43:27.648Z,96.37
2019-02-15T02:44:27.631Z,96.01
2019-02-15T02:45:27.627Z,96.26
2019-02-15T02:46:27.610Z,95.90
2019-02-15T02:47:27.597Z,95.84
2019-02-15T02:48:27.584Z,96.01
2019-02-15T02:49:27.591Z,95.53
2019-02-15T02:50:27.572Z,95.38
2019-02-15T02:51:27.561Z,95.07
2019-02-15T02:52:27.546Z,94.96
2019-02-15T02:53:27.541Z,95.01
2019-02-15T02:54:27.529Z,94.90
2019-02-15T02:55:27.510Z,94.59
2019-02-15T02:56:27.512Z,94.65
2019-02-15T02:57:27.492Z,94.59
2019-02-15T02:58:27.478Z,94.76
2019-02-15T02:59:27.471Z,94.76
2019-02-15T03:00:33.528Z,94.86
2019-02-15T03:01:28.450Z,94.80
2019-02-15T03:02:27.549Z,94.86
2019-02-15T03:03:27.425Z,95.01
2019-02-15T03:04:27.421Z,94.90
2019-02-15T03:05:27.410Z,94.70
2019-02-15T03:06:27.406Z,95.01
2019-02-15T03:07:27.394Z,94.59
2019-02-15T03:08:27.381Z,94.80
2019-02-15T03:09:27.376Z,94.90
2019-02-15T03:10:27.355Z,95.21
2019-02-15T03:11:27.348Z,95.74
2019-02-15T03:12:27.354Z,95.53
2019-02-15T03:13:27.329Z,95.84
2019-02-15T03:14:27.334Z,95.74
2019-02-15T03:15:27.303Z,96.05
2019-02-15T03:16:27.289Z,95.53
2019-02-15T03:17:27.276Z,95.84
2019-02-15T03:18:27.279Z,95.64
2019-02-15T03:19:27.270Z,95.74
2019-02-15T03:20:31.392Z,95.89
2019-02-15T03:21:27.241Z,95.78
2019-02-15T03:22:27.227Z,95.89
2019-02-15T03:23:27.221Z,95.84
2019-02-15T03:24:27.215Z,95.95
2019-02-15T03:25:27.196Z,96.10
2019-02-15T03:26:27.184Z,95.68
2019-02-15T03:27:27.180Z,96.16
2019-02-15T03:28:27.168Z,96.20
2019-02-15T03:29:27.164Z,96.94
2019-02-15T03:30:27.149Z,97.04
2019-02-15T03:31:27.143Z,97.04
2019-02-15T03:32:27.136Z,97.04
2019-02-15T03:33:27.130Z,97.25
2019-02-15T03:34:27.103Z,97.45
2019-02-15T03:35:27.165Z,97.25
2019-02-15T03:36:27.093Z,97.45
2019-02-15T03:37:27.097Z,97.45
2019-02-15T03:38:27.062Z,97.25
2019-02-15T03:39:27.072Z,97.35
2019-02-15T03:40:27.068Z,97.14
2019-02-15T03:41:27.029Z,97.20
2019-02-15T03:42:27.032Z,97.00
2019-02-15T03:43:27.021Z,96.89
2019-02-15T03:44:26.992Z,96.89
2019-02-15T03:45:26.984Z,96.78
2019-02-15T03:46:27.003Z,96.78
2019-02-15T03:47:26.967Z,96.78
2019-02-15T03:48:28.936Z,96.37
2019-02-15T03:49:26.943Z,96.05
2019-02-15T03:50:26.935Z,96.05
2019-02-15T03:51:26.932Z,95.95
2019-02-15T03:52:26.922Z,95.84
2019-02-15T03:53:26.902Z,95.84
2019-02-15T03:54:26.901Z,96.43
2019-02-15T03:55:26.884Z,95.49
2019-02-15T03:56:26.871Z,95.21
2019-02-15T03:57:26.861Z,94.65
2019-02-15T03:58:26.851Z,94.59
2019-02-15T03:59:26.847Z,94.55
2019-02-15T04:00:26.886Z,94.49
2019-02-15T04:01:26.816Z,94.65
2019-02-15T04:02:26.816Z,94.86
2019-02-15T04:03:26.796Z,94.49
2019-02-15T04:04:26.787Z,94.59
2019-02-15T04:05:26.788Z,94.59
2019-02-15T04:06:26.773Z,94.49
2019-02-15T04:07:26.753Z,94.90
2019-02-15T04:08:26.745Z,95.11
2019-02-15T04:09:26.732Z,95.32
2019-02-15T04:10:26.719Z,95.64
2019-02-15T04:11:26.720Z,95.21
2019-02-15T04:12:26.707Z,95.43
2019-02-15T04:13:26.692Z,94.90
2019-02-15T04:14:33.010Z,95.01
2019-02-15T04:15:27.684Z,94.49
2019-02-15T04:16:26.666Z,94.80
2019-02-15T04:17:26.673Z,94.42
2019-02-15T04:18:26.637Z,94.84
2019-02-15T04:19:26.629Z,94.80
2019-02-15T04:20:26.624Z,94.95
2019-02-15T04:21:26.617Z,95.37
2019-02-15T04:22:26.612Z,95.26
2019-02-15T04:23:26.599Z,95.47
2019-02-15T04:24:26.574Z,95.89
2019-02-15T04:25:26.561Z,95.57
2019-02-15T04:26:26.560Z,96.62
2019-02-15T04:27:26.550Z,95.99
2019-02-15T04:28:26.555Z,95.99
2019-02-15T04:29:26.522Z,96.31
2019-02-15T04:30:26.525Z,95.89
2019-02-15T04:31:26.503Z,96.31
2019-02-15T04:32:26.519Z,96.20
2019-02-15T04:33:26.490Z,96.41
2019-02-15T04:34:26.493Z,96.20
2019-02-15T04:35:26.458Z,96.51
2019-02-15T04:36:26.456Z,95.57
2019-02-15T04:37:26.439Z,95.68
2019-02-15T04:38:26.454Z,95.47
2019-02-15T04:39:26.429Z,95.26
2019-02-15T04:40:26.413Z,94.95
2019-02-15T04:41:26.399Z,95.37
2019-02-15T04:42:26.393Z,94.64
2019-02-15T04:43:26.371Z,94.38
2019-02-15T04:44:26.362Z,94.74
2019-02-15T04:45:26.365Z,94.95
2019-02-15T04:46:26.357Z,94.64
2019-02-15T04:47:26.356Z,93.80
2019-02-15T04:48:26.323Z,93.48
2019-02-15T04:49:26.315Z,94.01
2019-02-15T04:50:26.304Z,94.95
2019-02-15T04:51:26.298Z,94.78
2019-02-15T04:52:26.282Z,94.89
2019-02-15T04:53:26.278Z,94.68
2019-02-15T04:54:26.261Z,94.99
2019-02-15T04:55:26.253Z,95.09
2019-02-15T04:56:26.247Z,95.09
2019-02-15T04:57:26.252Z,94.99
2019-02-15T04:58:26.225Z,95.31
2019-02-15T04:59:26.225Z,95.83
2019-02-15T05:00:26.208Z,95.51
2019-02-15T05:01:26.193Z,96.04
2019-02-15T05:02:26.180Z,95.62
2019-02-15T05:03:26.165Z,95.93
2019-02-15T05:04:26.152Z,95.72
2019-02-15T05:05:26.146Z,95.93
2019-02-15T05:06:26.137Z,95.62
2019-02-15T05:07:26.123Z,95.93
2019-02-15T05:08:26.115Z,95.72
2019-02-15T05:09:26.113Z,95.62
2019-02-15T05:10:26.092Z,95.83
2019-02-15T05:11:26.078Z,95.72
2019-02-15T05:12:26.071Z,95.62
2019-02-15T05:13:26.061Z,95.51
2019-02-15T05:14:26.061Z,95.51
2019-02-15T05:15:26.040Z,95.72
2019-02-15T05:16:26.028Z,95.83
2019-02-15T05:17:26.025Z,95.83
2019-02-15T05:18:26.015Z,95.62
2019-02-15T05:19:26.007Z,95.83
2019-02-15T05:20:26.008Z,95.76
2019-02-15T05:21:25.973Z,95.72
2019-02-15T05:22:25.971Z,96.56
2019-02-15T05:23:25.961Z,95.98
2019-02-15T05:24:25.962Z,96.25
2019-02-15T05:25:25.937Z,96.14
2019-02-15T05:26:25.924Z,96.14
2019-02-15T05:27:25.916Z,95.72
2019-02-15T05:28:25.905Z,96.56
2019-02-15T05:29:25.905Z,95.66
2019-02-15T05:30:25.923Z,95.87
2019-02-15T05:31:25.879Z,95.20
2019-02-15T05:32:27.437Z,95.20
2019-02-15T05:33:25.866Z,94.99
2019-02-15T05:34:25.845Z,95.20
2019-02-15T05:35:25.836Z,95.20
2019-02-15T05:36:25.819Z,94.99
2019-02-15T05:37:25.812Z,95.09
2019-02-15T05:38:25.799Z,95.03
2019-02-15T05:39:25.792Z,95.41
2019-02-15T05:40:25.784Z,95.35
2019-02-15T05:41:25.798Z,95.35
2019-02-15T05:42:25.759Z,95.66
2019-02-15T05:43:25.769Z,95.87
2019-02-15T05:44:25.780Z,96.81
2019-02-15T05:45:25.731Z,96.08
2019-02-15T05:46:25.713Z,95.76
2019-02-15T05:47:25.710Z,96.39
2019-02-15T05:48:25.700Z,96.71
2019-02-15T05:49:25.685Z,96.92
2019-02-15T05:50:25.676Z,96.81
2019-02-15T05:51:25.665Z,97.02
2019-02-15T05:52:25.659Z,97.02
2019-02-15T05:53:25.644Z,97.02
2019-02-15T05:54:25.631Z,97.13
2019-02-15T05:55:25.629Z,96.88
2019-02-15T05:56:25.618Z,97.08
2019-02-15T05:57:25.603Z,96.98
2019-02-15T05:58:25.592Z,96.35
2019-02-15T05:59:25.598Z,96.14
2019-02-15T06:00:25.564Z,96.25
2019-02-15T06:01:25.552Z,95.62
2019-02-15T06:02:25.539Z,96.35
2019-02-15T06:03:25.536Z,95.83
2019-02-15T06:04:25.543Z,95.93
2019-02-15T06:05:25.517Z,95.93
2019-02-15T06:06:25.531Z,95.93
2019-02-15T06:07:25.499Z,95.62
2019-02-15T06:08:25.487Z,95.41
2019-02-15T06:09:25.491Z,96.14
2019-02-15T06:10:25.472Z,95.98
2019-02-15T06:11:25.456Z,95.98
2019-02-15T06:12:25.471Z,96.04
2019-02-15T06:13:25.442Z,96.04
2019-02-15T06:14:25.433Z,96.25
2019-02-15T06:15:25.414Z,95.76
2019-02-15T06:16:25.399Z,96.08
2019-02-15T06:17:25.396Z,96.14
2019-02-15T06:18:25.383Z,96.14
2019-02-15T06:19:25.367Z,96.35
2019-02-15T06:20:25.389Z,96.61
2019-02-15T06:21:25.343Z,96.66
2019-02-15T06:22:25.348Z,95.62
2019-02-15T06:23:25.339Z,95.31
2019-02-15T06:24:25.346Z,95.09
2019-02-15T06:25:25.315Z,95.41
2019-02-15T06:26:25.299Z,94.89
2019-02-15T06:27:25.290Z,95.41
2019-02-15T06:28:25.273Z,94.89
2019-02-15T06:29:25.297Z,94.78
2019-02-15T06:30:25.250Z,94.89
2019-02-15T06:31:25.248Z,94.68
2019-02-15T06:32:25.231Z,94.89
2019-02-15T06:33:25.233Z,94.99
2019-02-15T06:34:25.214Z,94.89
2019-02-15T06:35:25.206Z,94.99
2019-02-15T06:36:25.193Z,94.99
2019-02-15T06:37:25.180Z,94.99
2019-02-15T06:38:34.270Z,94.78
2019-02-15T06:39:26.161Z,95.20
2019-02-15T06:40:25.154Z,94.68
2019-02-15T06:41:25.149Z,94.89
2019-02-15T06:42:25.159Z,94.99
2019-02-15T06:43:25.123Z,94.99
2019-02-15T06:44:25.120Z,94.64
2019-02-15T06:45:25.606Z,94.99
2019-02-15T06:46:25.083Z,94.68
2019-02-15T06:47:25.073Z,94.46
2019-02-15T06:48:25.057Z,94.46
2019-02-15T06:49:25.052Z,94.26
2019-02-15T06:50:25.048Z,93.80
2019-02-15T06:51:25.033Z,94.95
2019-02-15T06:52:25.041Z,94.78
2019-02-15T06:53:25.015Z,94.68
2019-02-15T06:54:24.999Z,94.99
2019-02-15T06:55:24.985Z,95.41
2019-02-15T06:56:24.987Z,95.66
2019-02-15T06:57:24.973Z,96.14
2019-02-15T06:58:24.968Z,96.08
2019-02-15T06:59:24.951Z,96.29
2019-02-15T07:00:24.946Z,96.98
2019-02-15T07:01:24.935Z,96.81
2019-02-15T07:02:24.917Z,96.98
2019-02-15T07:03:24.973Z,96.98
2019-02-15T07:04:24.902Z,96.98
2019-02-15T07:05:24.899Z,96.35
2019-02-15T07:06:24.875Z,96.20
2019-02-15T07:07:24.867Z,96.20
2019-02-15T07:08:24.852Z,96.41
2019-02-15T07:09:24.849Z,95.68
2019-02-15T07:10:24.841Z,95.26
2019-02-15T07:11:24.821Z,95.68
2019-02-15T07:12:24.809Z,95.84
2019-02-15T07:13:24.809Z,95.57
2019-02-15T07:14:24.789Z,95.68
2019-02-15T07:15:33.185Z,95.47
2019-02-15T07:16:25.782Z,95.32
2019-02-15T07:17:24.764Z,95.32
2019-02-15T07:18:24.750Z,94.59
2019-02-15T07:19:24.749Z,94.86
2019-02-15T07:20:24.731Z,93.61
2019-02-15T07:21:24.731Z,93.73
2019-02-15T07:22:24.707Z,92.18
2019-02-15T07:23:24.695Z,87.81
2019-02-15T07:24:24.700Z,82.87
2019-02-15T07:25:24.690Z,78.64
2019-02-15T07:26:24.679Z,74.88
2019-02-15T07:27:24.666Z,71.19
2019-02-15T07:28:24.667Z,68.82
2019-02-15T07:29:24.634Z,67.00
2019-02-15T07:30:24.621Z,64.68
2019-02-15T07:31:24.619Z,62.87
2019-02-15T07:32:24.601Z,61.71
2019-02-15T07:33:24.594Z,61.30
2019-02-15T07:34:24.578Z,60.01
2019-02-15T07:35:24.569Z,59.59
2019-02-15T07:36:24.559Z,60.29
2019-02-15T07:37:24.549Z,58.16
2019-02-15T07:38:24.537Z,60.42
2019-02-15T07:39:24.526Z,60.31
2019-02-15T07:40:24.513Z,60.52
2019-02-15T07:41:24.523Z,60.55
2019-02-15T07:42:24.496Z,62.15
2019-02-15T07:43:24.501Z,62.79
2019-02-15T07:44:24.482Z,63.10
2019-02-15T07:45:24.470Z,63.42
2019-02-15T07:46:24.449Z,62.30
2019-02-15T07:47:24.435Z,59.88
2019-02-15T07:48:24.430Z,59.11
2019-02-15T07:49:26.934Z,57.61
2019-02-15T07:50:24.399Z,56.05
2019-02-15T07:51:24.423Z,55.08
2019-02-15T07:52:24.383Z,54.00
2019-02-15T07:53:24.378Z,53.06
2019-02-15T07:54:24.376Z,51.65
2019-02-15T07:55:24.379Z,49.90
2019-02-15T07:56:24.341Z,49.57
2019-02-15T07:57:24.322Z,48.85
2019-02-15T07:58:24.317Z,49.34
2019-02-15T07:59:24.301Z,47.72
2019-02-15T08:00:24.303Z,45.76
2019-02-15T08:01:24.284Z,44.12
2019-02-15T08:02:24.271Z,44.79
2019-02-15T08:03:24.264Z,44.67
2019-02-15T08:04:24.286Z,44.50
2019-02-15T08:05:24.252Z,44.07
2019-02-15T08:06:24.242Z,41.22
2019-02-15T08:07:24.216Z,40.06
2019-02-15T08:08:24.201Z,40.13
2019-02-15T08:09:24.203Z,39.20
2019-02-15T08:10:24.181Z,38.80
2019-02-15T08:11:24.193Z,37.57
2019-02-15T08:12:24.177Z,37.63
2019-02-15T08:13:24.145Z,38.22
2019-02-15T08:14:24.133Z,37.09
2019-02-15T08:15:24.151Z,37.40
2019-02-15T08:16:24.127Z,35.97
2019-02-15T08:17:24.130Z,37.07
2019-02-15T08:18:24.119Z,35.65
2019-02-15T08:19:24.095Z,36.15
2019-02-15T08:20:24.079Z,35.93
2019-02-15T08:21:24.080Z,36.32
2019-02-15T08:22:24.061Z,35.71
2019-02-15T08:23:24.100Z,34.91
2019-02-15T08:24:24.026Z,34.38
2019-02-15T08:25:24.021Z,33.97
2019-02-15T08:26:24.020Z,34.46
2019-02-15T08:27:24.022Z,34.14
2019-02-15T08:28:23.989Z,33.72
2019-02-15T08:29:23.993Z,33.31
2019-02-15T08:30:23.966Z,32.49
2019-02-15T08:31:23.951Z,30.77
2019-02-15T08:32:23.950Z,31.47
2019-02-15T08:33:23.953Z,31.24
2019-02-15T08:34:23.928Z,30.62
2019-02-15T08:35:23.927Z,30.51
2019-02-15T08:36:23.905Z,30.71
2019-02-15T08:37:23.887Z,30.69
2019-02-15T08:38:23.885Z,30.78
2019-02-15T08:39:23.902Z,29.97
2019-02-15T08:40:23.881Z,29.86
2019-02-15T08:41:23.866Z,29.68
2019-02-15T08:42:23.835Z,28.77
2019-02-15T08:43:23.829Z,29.75
2019-02-15T08:44:23.821Z,29.15
2019-02-15T08:45:23.834Z,28.74
2019-02-15T08:46:23.812Z,28.42
2019-02-15T08:47:23.794Z,29.43
2019-02-15T08:48:23.778Z,26.93
2019-02-15T08:49:23.767Z,29.31
2019-02-15T08:50:23.769Z,27.13
2019-02-15T08:51:23.761Z,28.50
2019-02-15T08:52:23.743Z,28.30
2019-02-15T08:53:23.729Z,27.79
2019-02-15T08:54:23.716Z,27.18
2019-02-15T08:55:23.709Z,27.36
2019-02-15T08:56:23.701Z,25.97
2019-02-15T08:57:23.705Z,28.64
2019-02-15T08:58:23.686Z,28.23
2019-02-15T08:59:23.670Z,27.12
2019-02-15T09:00:23.664Z,25.72
2019-02-15T09:01:23.659Z,25.65
2019-02-15T09:02:23.639Z,25.45
2019-02-15T09:03:23.636Z,25.63
2019-02-15T09:04:23.628Z,25.43
2019-02-15T09:05:23.617Z,25.62
2019-02-15T09:06:23.595Z,24.83
2019-02-15T09:07:23.596Z,24.73
2019-02-15T09:08:23.583Z,24.46
2019-02-15T09:09:23.583Z,25.48
2019-02-15T09:10:23.571Z,24.37
2019-02-15T09:11:23.554Z,25.76
2019-02-15T09:12:23.542Z,23.68
2019-02-15T09:13:23.574Z,25.86
2019-02-15T09:14:23.531Z,23.67
2019-02-15T09:15:23.529Z,23.18
2019-02-15T09:16:23.519Z,24.65
2019-02-15T09:17:23.497Z,24.98
2019-02-15T09:18:23.488Z,23.78
2019-02-15T09:19:23.479Z,24.17
2019-02-15T09:20:23.499Z,24.65
2019-02-15T09:21:23.466Z,23.16
2019-02-15T09:22:23.465Z,23.26
2019-02-15T09:23:23.477Z,24.26
2019-02-15T09:24:23.445Z,23.26
2019-02-15T09:25:23.433Z,23.87
2019-02-15T09:26:23.421Z,24.99
2019-02-15T09:27:23.409Z,24.79
2019-02-15T09:28:23.405Z,23.69
2019-02-15T09:29:23.427Z,23.90
2019-02-15T09:30:23.386Z,24.09
2019-02-15T09:31:23.390Z,24.58
2019-02-15T09:32:23.367Z,23.18
2019-02-15T09:33:23.353Z,23.67
2019-02-15T09:34:23.355Z,23.28
2019-02-15T09:35:23.332Z,24.18
2019-02-15T09:36:23.321Z,24.08
2019-02-15T09:37:23.323Z,24.29
2019-02-15T09:38:23.313Z,23.60
2019-02-15T09:39:23.296Z,24.70
2019-02-15T09:40:23.291Z,24.20
2019-02-15T09:41:23.292Z,25.31
2019-02-15T09:42:23.267Z,24.22
2019-02-15T09:43:23.271Z,24.75
2019-02-15T09:44:23.263Z,25.43
2019-02-15T09:45:23.250Z,26.34
2019-02-15T09:46:23.271Z,26.33
2019-02-15T09:47:23.228Z,25.65
2019-02-15T09:48:23.210Z,25.59
2019-02-15T09:49:24.348Z,26.31
2019-02-15T09:50:23.201Z,27.53
2019-02-15T09:51:23.195Z,28.45
2019-02-15T09:52:23.181Z,28.33
2019-02-15T09:53:23.181Z,27.55
2019-02-15T09:54:23.177Z,26.27
2019-02-15T09:55:23.155Z,28.19
2019-02-15T09:56:23.163Z,28.29
2019-02-15T09:57:23.131Z,29.44
2019-02-15T09:58:23.144Z,29.45
2019-02-15T09:59:23.115Z,31.68
2019-02-15T10:00:23.108Z,31.40
2019-02-15T10:01:23.100Z,31.60
2019-02-15T10:02:23.083Z,32.32
2019-02-15T10:03:23.094Z,32.64
2019-02-15T10:04:23.074Z,32.75
2019-02-15T10:05:23.066Z,34.17
2019-02-15T10:06:23.047Z,33.68
2019-02-15T10:07:23.045Z,32.47
2019-02-15T10:08:23.026Z,33.68
2019-02-15T10:09:23.017Z,32.37
2019-02-15T10:10:23.006Z,32.57
2019-02-15T10:11:22.997Z,33.68
2019-02-15T10:12:22.984Z,33.78
2019-02-15T10:13:22.974Z,34.47
2019-02-15T10:14:22.961Z,33.87
2019-02-15T10:15:22.953Z,33.95
2019-02-15T10:16:28.619Z,33.44
2019-02-15T10:17:23.943Z,32.95
2019-02-15T10:18:22.925Z,32.24
2019-02-15T10:19:22.929Z,32.05
2019-02-15T10:20:22.903Z,32.44
2019-02-15T10:21:22.904Z,33.06
2019-02-15T10:22:22.882Z,33.15
2019-02-15T10:23:22.883Z,33.04
2019-02-15T10:24:22.867Z,33.23
2019-02-15T10:25:22.853Z,32.91
2019-02-15T10:26:22.846Z,32.01
2019-02-15T10:27:22.838Z,31.81
2019-02-15T10:28:22.835Z,32.20
2019-02-15T10:29:22.839Z,31.09
2019-02-15T10:30:22.810Z,31.49
2019-02-15T10:31:22.788Z,31.30
2019-02-15T10:32:22.809Z,32.50
2019-02-15T10:33:22.779Z,30.48
2019-02-15T10:34:22.771Z,31.30
2019-02-15T10:35:22.763Z,31.32
2019-02-15T10:36:22.743Z,30.91
2019-02-15T10:37:22.728Z,31.42
2019-02-15T10:38:22.723Z,31.03
2019-02-15T10:39:22.717Z,30.82
2019-02-15T10:40:22.714Z,32.73
2019-02-15T10:41:22.697Z,30.90
2019-02-15T10:42:22.688Z,31.62
2019-02-15T10:43:22.670Z,31.72
2019-02-15T10:44:22.659Z,31.00
2019-02-15T10:45:22.645Z,30.80
2019-02-15T10:46:22.634Z,30.10
2019-02-15T10:47:25.105Z,31.72
2019-02-15T10:48:22.689Z,31.13
2019-02-15T10:49:22.612Z,31.93
2019-02-15T10:50:22.598Z,31.52
2019-02-15T10:51:22.582Z,31.72
2019-02-15T10:52:22.583Z,31.72
2019-02-15T10:53:22.561Z,30.63
2019-02-15T10:54:22.576Z,32.24
2019-02-15T10:55:22.559Z,33.13
2019-02-15T10:56:22.552Z,30.55
2019-02-15T10:57:22.528Z,32.30
2019-02-15T10:58:22.507Z,32.40
2019-02-15T10:59:22.496Z,33.01
2019-02-15T11:00:22.483Z,33.22
2019-02-15T11:01:22.470Z,34.35
2019-02-15T11:02:22.471Z,33.41
2019-02-15T11:03:22.457Z,33.61
2019-02-15T11:04:22.439Z,32.59
2019-02-15T11:05:22.441Z,31.96
2019-02-15T11:06:22.422Z,32.17
2019-02-15T11:07:22.405Z,32.79
2019-02-15T11:08:22.406Z,32.76
2019-02-15T11:09:22.409Z,31.76
2019-02-15T11:10:22.373Z,30.74
2019-02-15T11:11:22.369Z,31.85
2019-02-15T11:12:22.354Z,31.73
2019-02-15T11:13:22.339Z,30.82
2019-02-15T11:14:22.344Z,30.34
2019-02-15T11:15:22.319Z,30.76
2019-02-15T11:16:22.311Z,31.56
2019-02-15T11:17:22.302Z,31.06
2019-02-15T11:18:22.299Z,31.46
2019-02-15T11:19:22.286Z,31.85
2019-02-15T11:20:22.272Z,31.55
2019-02-15T11:21:22.255Z,31.04
2019-02-15T11:22:22.241Z,31.15
2019-02-15T11:23:22.241Z,31.46
2019-02-15T11:24:22.219Z,32.87
2019-02-15T11:25:22.217Z,31.56
2019-02-15T11:26:24.750Z,31.67
2019-02-15T11:27:22.192Z,31.56
2019-02-15T11:28:22.181Z,29.78
2019-02-15T11:29:22.168Z,32.32
2019-02-15T11:30:22.160Z,31.42
2019-02-15T11:31:22.160Z,31.62
2019-02-15T11:32:22.158Z,33.04
2019-02-15T11:33:22.122Z,32.53
2019-02-15T11:34:22.130Z,32.92
2019-02-15T11:35:22.109Z,32.50
2019-02-15T11:36:22.103Z,30.28
2019-02-15T11:37:22.090Z,29.59
2019-02-15T11:38:22.075Z,31.20
2019-02-15T11:39:22.059Z,31.99
2019-02-15T11:40:22.049Z,31.99
2019-02-15T11:41:22.057Z,31.00
2019-02-15T11:42:22.040Z,30.18
2019-02-15T11:43:22.026Z,31.59
2019-02-15T11:44:22.010Z,32.70
2019-02-15T11:45:21.998Z,31.91
2019-02-15T11:46:21.984Z,31.81
2019-02-15T11:47:21.979Z,32.01
2019-02-15T11:48:21.962Z,31.71
2019-02-15T11:49:21.968Z,33.22
2019-02-15T11:50:21.958Z,32.20
2019-02-15T11:51:21.931Z,31.10
2019-02-15T11:52:21.926Z,31.93
2019-02-15T11:53:21.911Z,31.74
2019-02-15T11:54:23.808Z,32.35
2019-02-15T11:55:21.896Z,31.43
2019-02-15T11:56:21.879Z,31.54
2019-02-15T11:57:21.878Z,30.83
2019-02-15T11:58:21.859Z,31.96
2019-02-15T11:59:21.857Z,31.85
2019-02-15T12:00:23.153Z,32.98
2019-02-15T12:01:21.908Z,32.76
2019-02-15T12:02:22.069Z,32.98
2019-02-15T12:03:21.804Z,33.07
2019-02-15T12:04:21.810Z,32.97
2019-02-15T12:05:21.799Z,32.55
2019-02-15T12:06:21.767Z,32.97
2019-02-15T12:07:21.763Z,31.25
2019-02-15T12:08:21.742Z,31.16
2019-02-15T12:09:21.739Z,31.76
2019-02-15T12:10:21.728Z,32.28
2019-02-15T12:11:21.721Z,32.00
2019-02-15T12:12:21.706Z,32.91
2019-02-15T12:13:21.696Z,31.19
2019-02-15T12:14:21.684Z,31.71
2019-02-15T12:15:21.694Z,31.80
2019-02-15T12:16:21.670Z,30.90
2019-02-15T12:17:21.668Z,32.20
2019-02-15T12:18:21.641Z,31.49
2019-02-15T12:19:21.636Z,31.07
2019-02-15T12:20:21.632Z,31.78
2019-02-15T12:21:21.599Z,31.99
2019-02-15T12:22:21.593Z,32.68
2019-02-15T12:23:21.582Z,31.46
2019-02-15T12:24:21.578Z,30.86
2019-02-15T12:25:21.557Z,29.66
2019-02-15T12:26:21.557Z,30.27
2019-02-15T12:27:21.543Z,31.16
2019-02-15T12:28:21.537Z,31.16
2019-02-15T12:29:21.517Z,30.76
2019-02-15T12:30:21.579Z,31.05
2019-02-15T12:31:21.492Z,30.93
2019-02-15T12:32:21.487Z,30.21
2019-02-15T12:33:21.482Z,31.22
2019-02-15T12:34:21.638Z,31.73
2019-02-15T12:35:21.455Z,29.59
2019-02-15T12:36:21.445Z,28.29
2019-02-15T12:37:21.433Z,29.30
2019-02-15T12:38:21.423Z,28.20
2019-02-15T12:39:21.418Z,29.92
2019-02-15T12:40:21.417Z,28.83
2019-02-15T12:41:21.395Z,29.76
2019-02-15T12:42:21.381Z,30.79
2019-02-15T12:43:21.383Z,31.70
2019-02-15T12:44:21.363Z,31.10
2019-02-15T12:45:21.362Z,31.30
2019-02-15T12:46:21.379Z,31.12
2019-02-15T12:47:21.325Z,31.73
2019-02-15T12:48:21.320Z,33.25
2019-02-15T12:49:21.303Z,32.12
2019-02-15T12:50:21.302Z,32.82
2019-02-15T12:51:21.280Z,32.12
2019-02-15T12:52:21.269Z,31.81